Łańsk / Gryźliny Airfield

EPGR · Varmia y Masuria, Polonia

METAR pasados EPGR · Łańsk / Gryźliny Airfield

A continuación puedes ver los METAR de los últimos días. Selecciona un año para ver los METAR más antiguos, desde el año 2007 en adelante.

15 de julio de 2024

Hora Código Tiempo Temp. Visibilidad Cielo nuboso Viento METAR/SPECI
01:30
V
15 °C 10 km+ - Var Var 3 kt METAR EPSY 142330Z VRB03KT CAVOK 15/13 Q1016
01:00
V
16 °C 10 km+ - Var Var 2 kt METAR EPSY 142300Z VRB02KT CAVOK 16/13 Q1016
00:30
V
16 °C 10 km+ - Var Var 2 kt METAR EPSY 142230Z VRB02KT CAVOK 16/13 Q1016
00:00
V
16 °C 10 km+ - Var Var 2 kt METAR EPSY 142200Z VRB02KT CAVOK 16/13 Q1016

14 de julio de 2024

Hora Código Tiempo Temp. Visibilidad Cielo nuboso Viento METAR/SPECI
23:30
V
16 °C 10 km+ - 360° 360° 0 kt METAR EPSY 142130Z 00000KT CAVOK 16/14 Q1016
23:00
V
17 °C 10 km+ - Var Var 2 kt METAR EPSY 142100Z VRB02KT CAVOK 17/13 Q1016
22:30
V
18 °C 10 km+ - Var Var 2 kt METAR EPSY 142030Z VRB02KT CAVOK 18/14 Q1015
22:00
V
18 °C 10 km+ - Var Var 2 kt METAR EPSY 142000Z VRB02KT CAVOK 18/14 Q1015
21:30
V
19 °C 10 km+ - Var Var 2 kt METAR EPSY 141930Z VRB02KT CAVOK 19/13 Q1016
21:00
V
21 °C 10 km+ - Var Var 2 kt METAR EPSY 141900Z VRB02KT CAVOK 21/13 Q1015
20:30
V
22 °C 10 km+ - Var Var 3 kt METAR EPSY 141830Z VRB03KT CAVOK 22/13 Q1015
20:00
V
23 °C 10 km+ - Var Var 3 kt METAR EPSY 141800Z VRB03KT CAVOK 23/14 Q1015
19:30
V
24 °C 10 km+ - 060° 060° 4 kt METAR EPSY 141730Z 06004KT 030V100 CAVOK 24/12 Q1015
19:00
V
24 °C 10 km+ - 030° 030° 4 kt METAR EPSY 141700Z 03004KT 360V070 CAVOK 24/12 Q1015
18:30
V
25 °C 10 km+ - 040° 040° 6 kt METAR EPSY 141630Z 04006KT 360V060 CAVOK 25/12 Q1015
18:00
V
25 °C 10 km+ - Var Var 2 kt METAR EPSY 141600Z VRB02KT CAVOK 25/11 Q1015
17:30
V
25 °C 10 km+ - Var Var 2 kt METAR EPSY 141530Z VRB02KT CAVOK 25/12 Q1014
17:00
V
25 °C 10 km+ - Var Var 2 kt METAR EPSY 141500Z VRB02KT CAVOK 25/11 Q1015
16:30
V
25 °C 10 km+ - Var Var 2 kt METAR EPSY 141430Z VRB02KT CAVOK 25/12 Q1015
16:00
V
25 °C 10 km+ - 080° 080° 6 kt METAR EPSY 141400Z 08006KT 030V110 CAVOK 25/12 Q1015
15:30
V
25 °C 10 km+ - Var Var 2 kt METAR EPSY 141330Z VRB02KT CAVOK 25/12 Q1015
15:00
V
24 °C 10 km+ - Var Var 5 kt METAR EPSY 141300Z VRB05KT CAVOK 24/13 Q1015
14:30
V
24 °C 10 km+ - Var Var 5 kt METAR EPSY 141230Z VRB05KT CAVOK 24/12 Q1015
14:00
V
24 °C 10 km+ - 070° 070° 5 kt METAR EPSY 141200Z 07005KT 030V150 CAVOK 24/12 Q1015
13:30
V
23 °C 10 km+ - 010° 010° 5 kt METAR EPSY 141130Z 01005KT 310V120 CAVOK 23/11 Q1015
13:00
V
23 °C 10 km+ - Var Var 3 kt METAR EPSY 141100Z VRB03KT CAVOK 23/10 Q1015
12:30
V
23 °C 10 km+ - Var Var 3 kt METAR EPSY 141030Z VRB03KT CAVOK 23/11 Q1015
12:00
V
22 °C 10 km+ - 020° 020° 5 kt METAR EPSY 141000Z 02005KT 330V090 CAVOK 22/11 Q1016
11:30
V
21 °C 10 km+ - Var Var 3 kt METAR EPSY 140930Z VRB03KT CAVOK 21/11 Q1016
11:00
V
21 °C 10 km+ - 050° 050° 5 kt METAR EPSY 140900Z 05005KT 340V120 CAVOK 21/10 Q1016
10:30
V
20 °C 10 km+ - Var Var 2 kt METAR EPSY 140830Z VRB02KT CAVOK 20/12 Q1016
10:00
V
20 °C 10 km+ - Var Var 2 kt METAR EPSY 140800Z VRB02KT CAVOK 20/13 Q1015
09:30
V
19 °C 10 km+ - Var Var 2 kt METAR EPSY 140730Z VRB02KT CAVOK 19/13 Q1016
09:00
V
19 °C 10 km+ - 360° 360° 0 kt METAR EPSY 140700Z 00000KT CAVOK 19/15 Q1015
08:30
V
16 °C 10 km+ - 220° 220° 3 kt METAR EPSY 140630Z 22003KT CAVOK 16/14 Q1016
08:00
V
16 °C 10 km+ - Var Var 2 kt METAR EPSY 140600Z VRB02KT CAVOK 16/14 Q1015
07:30
V
15 °C 10 km+ - 360° 360° 0 kt METAR EPSY 140530Z 00000KT CAVOK 15/14 Q1015
07:00
V
14 °C 10 km+ - Var Var 1 kt METAR EPSY 140500Z VRB01KT 9999 -SHRA SCT022TCU 14/14 Q1015
06:30
V
14 °C 10 km+ - Var Var 2 kt METAR EPSY 140430Z VRB02KT CAVOK 14/14 Q1015
06:00
V
12 °C 10 km+ - 200° 200° 5 kt METAR EPSY 140400Z 20005KT CAVOK 12/12 Q1016
05:30
V
12 °C 10 km+ - Var Var 2 kt METAR EPSY 140330Z VRB02KT CAVOK 12/12 Q1015
05:00
V
12 °C 10 km+ - 360° 360° 0 kt METAR EPSY 140300Z 00000KT CAVOK 12/12 Q1015
04:30
V
12 °C 10 km+ - Var Var 1 kt METAR EPSY 140230Z VRB01KT CAVOK 12/12 Q1015
04:00
V
12 °C 10 km+ - Var Var 2 kt METAR EPSY 140200Z VRB02KT CAVOK 12/12 Q1015
03:30
V
12 °C 10 km+ - Var Var 2 kt METAR EPSY 140130Z VRB02KT CAVOK 12/12 Q1014
02:30
V
14 °C 10 km+ - Var Var 2 kt METAR EPSY 140030Z VRB02KT CAVOK 14/14 Q1014
02:00
V
14 °C 10 km+ - Var Var 2 kt METAR EPSY 140000Z VRB02KT CAVOK 14/13 Q1014
01:30
V
15 °C 10 km+ - Var Var 1 kt METAR EPSY 132330Z VRB01KT CAVOK 15/13 Q1014
01:00
V
17 °C 10 km+ - Var Var 2 kt METAR EPSY 132300Z VRB02KT CAVOK 17/13 Q1014
00:30
V
17 °C 10 km+ - 280° 280° 4 kt METAR EPSY 132230Z 28004KT 250V320 CAVOK 17/13 Q1014
00:00
V
18 °C 10 km+ - 290° 290° 5 kt METAR EPSY 132200Z 29005KT 250V320 CAVOK 18/14 Q1014

13 de julio de 2024

Hora Código Tiempo Temp. Visibilidad Cielo nuboso Viento METAR/SPECI
23:30
V
19 °C 10 km+ - 270° 270° 5 kt METAR EPSY 132130Z 27005KT CAVOK 19/14 Q1013
23:00
V
20 °C 10 km+ - 290° 290° 6 kt METAR EPSY 132100Z 29006KT 250V320 CAVOK 20/14 Q1013
22:30
V
20 °C 10 km+ - 290° 290° 4 kt METAR EPSY 132030Z 29004KT 250V320 CAVOK 20/15 Q1013
22:00
V
20 °C 10 km+ - 260° 260° 3 kt METAR EPSY 132000Z 26003KT CAVOK 20/15 Q1012
21:30
V
21 °C 10 km+ - 210° 210° 4 kt METAR EPSY 131930Z 21004KT CAVOK 21/15 Q1012
21:00
V
23 °C 10 km+ - 240° 240° 5 kt METAR EPSY 131900Z 24005KT 210V280 CAVOK 23/15 Q1012
20:30
V
24 °C 10 km+ - 230° 230° 8 kt METAR EPSY 131830Z 23008KT CAVOK 24/16 Q1012
20:00
V
24 °C 10 km+ - 240° 240° 9 kt METAR EPSY 131800Z 24009KT CAVOK 24/15 Q1011
19:30
V
25 °C 10 km+ - 260° 260° 9 kt METAR EPSY 131730Z 26009KT 230V300 CAVOK 25/15 Q1011
19:00
V
25 °C 10 km+ - 240° 240° 11 kt METAR EPSY 131700Z 24011KT 210V290 CAVOK 25/15 Q1010
18:30
V
25 °C 10 km+ - 230° 230° 12 kt METAR EPSY 131630Z 23012KT 210V270 CAVOK 25/15 Q1010
18:00
V
26 °C 10 km+ - 240° 240° 11 kt METAR EPSY 131600Z 24011KT 210V280 CAVOK 26/15 Q1010
17:30
V
26 °C 10 km+ - 240° 240° 13 kt METAR EPSY 131530Z 24013KT 9999 FEW039 26/16 Q1010
17:00
V
26 °C 10 km+ - 230° 230° 13 kt METAR EPSY 131500Z 23013KT 180V290 9999 SCT037 26/17 Q1010
16:30
V
26 °C 10 km+ - 230° 230° 11 kt METAR EPSY 131430Z 23011KT 200V260 9999 SCT035 26/18 Q1010
16:00
V
26 °C 10 km+ - 230° 230° 12 kt METAR EPSY 131400Z 23012KT 9999 SCT037 26/17 Q1009
15:30
V
26 °C 10 km+ - 230° 230° 15 kt METAR EPSY 131330Z 23015KT 9999 SCT034 26/17 Q1009
15:00
V
25 °C 10 km+ - 230° 230° 12 kt METAR EPSY 131300Z 23012KT 200V270 9999 SCT028 25/17 Q1009
14:30
V
24 °C 10 km+ 3.300 ft 220° 220° 15 kt METAR EPSY 131230Z 22015KT 9999 SCT024 BKN033 24/19 Q1009
14:00
M
24 °C 10 km+ 2.200 ft 220° 220° 15 - 25 kt METAR EPSY 131200Z 22015G25KT 200V260 9999 BKN022 BKN037 24/19 Q1009
13:30
M
23 °C 10 km+ 2.100 ft 220° 220° 12 kt METAR EPSY 131130Z 22012KT 170V250 9999 SCT016 BKN021 BKN031 23/19 Q1009
13:00
M
23 °C 10 km+ 1.400 ft 220° 220° 13 kt METAR EPSY 131100Z 22013KT 9999 BKN014 BKN029 23/19 Q1008
12:30
M
21 °C 10 km+ 1.100 ft 210° 210° 14 kt METAR EPSY 131030Z 21014KT 9999 OVC011 21/19 Q1008
12:00
M
20 °C 10 km+ 1.000 ft 210° 210° 14 kt METAR EPSY 131000Z 21014KT 9999 BKN010 BKN013 20/19 Q1008
11:30
M
21 °C 10 km+ 1.100 ft 210° 210° 16 - 28 kt METAR EPSY 130930Z 21016G28KT 9999 BKN011 OVC017 21/18 Q1007
11:00
M
22 °C 10 km+ 1.700 ft 200° 200° 17 kt METAR EPSY 130900Z 20017KT 170V230 9999 BKN017 BKN024 22/18 Q1007
10:30
M
22 °C 10 km+ 1.700 ft 200° 200° 18 kt METAR EPSY 130830Z 20018KT 160V230 9999 BKN017 BKN022 BKN029 22/19 Q1006
10:00
M
23 °C 10 km+ 2.700 ft 200° 200° 15 - 25 kt METAR EPSY 130800Z 20015G25KT 9999 SCT017 BKN027 23/19 Q1006
09:30
M
22 °C 10 km+ 1.600 ft 190° 190° 16 kt METAR EPSY 130730Z 19016KT 9999 SCT013 BKN016 OVC029 22/19 Q1006
09:00
M
23 °C 10 km+ 1.200 ft 180° 180° 11 kt METAR EPSY 130700Z 18011KT 150V210 9999 BKN012 BKN026 23/21 Q1006
08:30
M
22 °C 10 km+ 1.000 ft 170° 170° 9 kt METAR EPSY 130630Z 17009KT 140V200 9999 BKN010 BKN014 22/21 Q1006
08:00
I
21 °C 10 km+ 700 ft 170° 170° 9 kt METAR EPSY 130600Z 17009KT 120V210 9999 BKN007 BKN011 21/21 Q1006
07:30
M
21 °C 10 km+ 1.400 ft 180° 180° 8 kt METAR EPSY 130530Z 18008KT 130V210 9999 SCT007 BKN014 21/21 Q1006
07:00
M
21 °C 10 km+ 1.400 ft 180° 180° 7 kt METAR EPSY 130500Z 18007KT 140V210 9999 SCT008 BKN014 21/21 Q1006
06:30
M
20 °C 10 km+ 1.500 ft 170° 170° 8 kt METAR EPSY 130430Z 17008KT 140V210 9999 SCT009 BKN015 20/20 Q1006
06:00
M
20 °C 10 km+ 1.500 ft 170° 170° 9 kt METAR EPSY 130400Z 17009KT 130V210 9999 SCT009 BKN015 20/20 Q1006
05:30
M
20 °C 10 km+ 1.500 ft 160° 160° 9 kt METAR EPSY 130330Z 16009KT 110V190 9999 SCT009 BKN015 20/20 Q1006
05:00
M
20 °C 10 km+ 1.600 ft 150° 150° 9 kt METAR EPSY 130300Z 15009KT 120V190 9999 SCT010 BKN016 20/20 Q1006
04:30
M
20 °C 10 km+ 2.400 ft 130° 130° 8 kt METAR EPSY 130230Z 13008KT 070V170 9999 SCT010 BKN024 20/20 Q1006 RETSRA
04:00
M
21 °C 8 km 2.500 ft 120° 120° 10 kt METAR EPSY 130200Z 12010KT 080V160 8000 TSRA SCT010 BKN025CB 21/21 Q1006
03:30
I
20 °C 3,5 km 3.200 ft Var Var 2 kt METAR EPSY 130130Z VRB02KT 3500 TSRA SCT012 BKN032CB 20/20 Q1007
03:00
V
20 °C 8 km 3.900 ft 060° 060° 8 kt METAR EPSY 130100Z 06008KT 020V110 8000 -TSRA BKN039CB 20/20 Q1007
02:30
V
20 °C 10 km+ 4.600 ft 030° 030° 9 kt METAR EPSY 130030Z 03009KT 360V080 9999 -TSRA BKN046CB 20/20 Q1008 RESHRA
02:00
I
21 °C 3 km 3.000 ft 020° 020° 8 kt METAR EPSY 130000Z 02008KT 340V080 3000 TSRA BKN030CB 21/20 Q1009
01:30
V
22 °C 10 km+ 4.500 ft 040° 040° 9 kt METAR EPSY 122330Z 04009KT 330V090 9999 -SHRA BKN045CB 22/19 Q1009
01:00
V
22 °C 10 km+ - 050° 050° 5 kt METAR EPSY 122300Z 05005KT 020V080 CAVOK 22/19 Q1010
00:30
V
22 °C 10 km+ - 050° 050° 5 kt METAR EPSY 122230Z 05005KT 020V100 CAVOK 22/18 Q1010
00:00
V
23 °C 10 km+ - 050° 050° 6 kt METAR EPSY 122200Z 05006KT 020V080 CAVOK 23/18 Q1011

12 de julio de 2024

Hora Código Tiempo Temp. Visibilidad Cielo nuboso Viento METAR/SPECI
23:30
V
23 °C 10 km+ - 050° 050° 4 kt METAR EPSY 122130Z 05004KT 020V080 CAVOK 23/18 Q1011
23:00
V
23 °C 10 km+ - 050° 050° 9 kt METAR EPSY 122100Z 05009KT CAVOK 23/18 Q1011
22:30
V
23 °C 10 km+ - 050° 050° 5 kt METAR EPSY 122030Z 05005KT 020V090 CAVOK 23/18 Q1012
22:00
V
23 °C 10 km+ - 050° 050° 6 kt METAR EPSY 122000Z 05006KT 020V110 CAVOK 23/18 Q1012
21:30
V
24 °C 10 km+ - 050° 050° 6 kt METAR EPSY 121930Z 05006KT CAVOK 24/18 Q1012
21:00
V
24 °C 10 km+ - 040° 040° 5 kt METAR EPSY 121900Z 04005KT CAVOK 24/18 Q1013
20:30
V
24 °C 10 km+ - 050° 050° 3 kt METAR EPSY 121830Z 05003KT 030V100 CAVOK 24/18 Q1013
20:00
V
25 °C 10 km+ - 050° 050° 6 kt METAR EPSY 121800Z 05006KT 020V090 CAVOK 25/18 Q1013
19:30
V
26 °C 10 km+ - 080° 080° 3 kt METAR EPSY 121730Z 08003KT 040V120 CAVOK 26/18 Q1013
19:00
V
26 °C 10 km+ - 050° 050° 7 kt METAR EPSY 121700Z 05007KT 020V090 CAVOK 26/17 Q1013
18:30
V
27 °C 10 km+ - 060° 060° 6 kt METAR EPSY 121630Z 06006KT 360V100 CAVOK 27/18 Q1013
18:00
V
27 °C 10 km+ - 070° 070° 5 kt METAR EPSY 121600Z 07005KT 020V120 CAVOK 27/17 Q1014
17:30
V
27 °C 10 km+ - 080° 080° 4 kt METAR EPSY 121530Z 08004KT 360V160 CAVOK 27/18 Q1014
17:00
V
27 °C 10 km+ - Var Var 3 kt METAR EPSY 121500Z VRB03KT CAVOK 27/18 Q1014
16:30
V
27 °C 10 km+ - 050° 050° 5 kt METAR EPSY 121430Z 05005KT 340V110 CAVOK 27/18 Q1014
16:00
V
27 °C 10 km+ - 030° 030° 7 kt METAR EPSY 121400Z 03007KT 360V080 CAVOK 27/18 Q1015
15:30
V
26 °C 10 km+ - 070° 070° 3 kt METAR EPSY 121330Z 07003KT 020V110 9999 SCT041 26/18 Q1015
15:00
V
26 °C 10 km+ - 030° 030° 5 kt METAR EPSY 121300Z 03005KT 340V080 9999 FEW036 26/18 Q1015
14:30
V
27 °C 10 km+ - Var Var 5 kt METAR EPSY 121230Z VRB05KT 9999 SCT036 27/19 Q1015
14:00
V
25 °C 10 km+ - 360° 360° 6 kt METAR EPSY 121200Z 36006KT 330V070 9999 SCT035 25/18 Q1016
13:30
V
26 °C 10 km+ - Var Var 3 kt METAR EPSY 121130Z VRB03KT 9999 SCT029 26/18 Q1016
13:00
V
25 °C 10 km+ - 340° 340° 4 kt METAR EPSY 121100Z 34004KT 260V050 9999 SCT027 25/18 Q1016
12:30
V
23 °C 10 km+ - 040° 040° 5 kt METAR EPSY 121030Z 04005KT 360V080 9999 SCT025 23/18 Q1016
12:00
V
23 °C 10 km+ - 020° 020° 5 kt METAR EPSY 121000Z 02005KT 350V070 9999 SCT022 23/18 Q1016
11:30
V
23 °C 10 km+ - 340° 340° 6 kt METAR EPSY 120930Z 34006KT 300V030 9999 SCT021 23/19 Q1016
11:00
V
22 °C 10 km+ - 350° 350° 6 kt METAR EPSY 120900Z 35006KT 300V100 9999 SCT018 22/18 Q1016
10:30
V
22 °C 10 km+ - 340° 340° 4 kt METAR EPSY 120830Z 34004KT 270V050 9999 SCT016 22/18 Q1016
10:00
M
21 °C 10 km+ 1.500 ft 360° 360° 6 kt METAR EPSY 120800Z 36006KT 310V040 9999 BKN015 21/18 Q1017
09:30
M
21 °C 10 km+ 1.100 ft 020° 020° 7 kt METAR EPSY 120730Z 02007KT 330V040 9999 BKN011 21/19 Q1017
09:00
M
21 °C 10 km+ 1.200 ft 010° 010° 8 kt METAR EPSY 120700Z 01008KT 330V040 9999 BKN012 21/19 Q1016
08:30
M
20 °C 10 km+ 1.200 ft 340° 340° 5 kt METAR EPSY 120630Z 34005KT 9999 FEW005 BKN012 20/19 Q1017
08:00
L
19 °C 10 km+ 400 ft 360° 360° 6 kt METAR EPSY 120600Z 36006KT 330V040 9999 BKN004 19/19 Q1017
Cambiar esta información